Ballinamallard, United Kingdom
Current Conditions -  °F | °C
As of 2:00 PM on Sunday 25 Jan 2015 (Local Time) from EISG Reporting Station
Overcast Overcast  
Wind Chill: 11°   Ceiling: 2200
Heat Index: 11°   Visibility: 4mi
Dew Point:   Wind: 21mph
Humidity: 82%   Direction: 220°SW
Pressure: 30.12"   Gusts: NA
Location:  54.4°N, 7.58°W
Report Text: EISG 251400Z 22018KT 6000 OVC022 11/08 Q1020
Loading
Personal Weather Stations






























Interactive Weather Map New forecast layout! Learn more

10-Day Weather Forecast

Advertisements
Track Severe Weather on mobile